sensor_id;sensor_type;location;lat;lon;timestamp;P1;durP1;ratioP1;P2;durP2;ratioP2
66145;SDS011;52948;60.040;30.320;2022-09-09T00:00:27;4.70;;;2.35;;
66145;SDS011;52948;60.040;30.320;2022-09-09T00:05:35;7.65;;;2.47;;
66145;SDS011;52948;60.040;30.320;2022-09-09T00:10:41;4.05;;;2.15;;
66145;SDS011;52948;60.040;30.320;2022-09-09T00:21:15;5.18;;;2.35;;
66145;SDS011;52948;60.040;30.320;2022-09-09T00:31:51;7.60;;;2.50;;
66145;SDS011;52948;60.040;30.320;2022-09-09T00:37:00;5.05;;;2.40;;
66145;SDS011;52948;60.040;30.320;2022-09-09T00:42:09;3.65;;;2.40;;
66145;SDS011;52948;60.040;30.320;2022-09-09T00:57:52;4.40;;;2.35;;
66145;SDS011;52948;60.040;30.320;2022-09-09T01:08:47;6.53;;;2.63;;
66145;SDS011;52948;60.040;30.320;2022-09-09T01:14:18;5.95;;;2.55;;
66145;SDS011;52948;60.040;30.320;2022-09-09T01:19:38;4.38;;;2.33;;
66145;SDS011;52948;60.040;30.320;2022-09-09T01:25:09;5.20;;;2.17;;
66145;SDS011;52948;60.040;30.320;2022-09-09T01:36:24;6.32;;;2.80;;
66145;SDS011;52948;60.040;30.320;2022-09-09T01:41:35;6.35;;;2.80;;
66145;SDS011;52948;60.040;30.320;2022-09-09T01:46:44;3.58;;;2.38;;
66145;SDS011;52948;60.040;30.320;2022-09-09T01:51:57;5.72;;;2.97;;
66145;SDS011;52948;60.040;30.320;2022-09-09T01:57:27;5.55;;;2.72;;
66145;SDS011;52948;60.040;30.320;2022-09-09T02:13:40;4.27;;;2.40;;
66145;SDS011;52948;60.040;30.320;2022-09-09T02:19:06;9.70;;;2.90;;
66145;SDS011;52948;60.040;30.320;2022-09-09T02:24:35;4.20;;;2.28;;
66145;SDS011;52948;60.040;30.320;2022-09-09T02:29:53;6.53;;;2.20;;
66145;SDS011;52948;60.040;30.320;2022-09-09T02:35:15;5.25;;;2.33;;
66145;SDS011;52948;60.040;30.320;2022-09-09T02:40:22;4.63;;;2.25;;
66145;SDS011;52948;60.040;30.320;2022-09-09T02:45:34;6.35;;;2.30;;
66145;SDS011;52948;60.040;30.320;2022-09-09T02:50:52;4.32;;;2.20;;
66145;SDS011;52948;60.040;30.320;2022-09-09T02:56:03;2.85;;;1.70;;
66145;SDS011;52948;60.040;30.320;2022-09-09T03:01:09;2.72;;;1.48;;
66145;SDS011;52948;60.040;30.320;2022-09-09T03:06:12;3.08;;;1.67;;
66145;SDS011;52948;60.040;30.320;2022-09-09T03:11:16;6.05;;;1.42;;
66145;SDS011;52948;60.040;30.320;2022-09-09T03:16:19;2.75;;;1.15;;
66145;SDS011;52948;60.040;30.320;2022-09-09T03:21:24;2.25;;;1.10;;
66145;SDS011;52948;60.040;30.320;2022-09-09T03:26:27;1.83;;;1.00;;
66145;SDS011;52948;60.040;30.320;2022-09-09T03:31:29;1.23;;;1.05;;
66145;SDS011;52948;60.040;30.320;2022-09-09T03:36:32;2.30;;;1.20;;
66145;SDS011;52948;60.040;30.320;2022-09-09T03:41:35;1.98;;;1.10;;
66145;SDS011;52948;60.040;30.320;2022-09-09T03:46:39;2.20;;;1.13;;
66145;SDS011;52948;60.040;30.320;2022-09-09T03:51:42;3.60;;;1.20;;
66145;SDS011;52948;60.040;30.320;2022-09-09T03:56:46;2.97;;;1.10;;
66145;SDS011;52948;60.040;30.320;2022-09-09T04:01:48;1.92;;;1.30;;
66145;SDS011;52948;60.040;30.320;2022-09-09T04:06:51;2.60;;;1.10;;
66145;SDS011;52948;60.040;30.320;2022-09-09T04:11:56;4.18;;;1.30;;
66145;SDS011;52948;60.040;30.320;2022-09-09T04:16:58;1.77;;;1.33;;
66145;SDS011;52948;60.040;30.320;2022-09-09T04:22:02;2.20;;;0.95;;
66145;SDS011;52948;60.040;30.320;2022-09-09T04:27:04;1.38;;;0.77;;
66145;SDS011;52948;60.040;30.320;2022-09-09T04:32:10;1.13;;;0.90;;
66145;SDS011;52948;60.040;30.320;2022-09-09T04:37:14;3.15;;;1.10;;
66145;SDS011;52948;60.040;30.320;2022-09-09T04:42:18;3.08;;;1.30;;
66145;SDS011;52948;60.040;30.320;2022-09-09T04:47:22;3.78;;;1.55;;
66145;SDS011;52948;60.040;30.320;2022-09-09T04:52:25;2.60;;;1.30;;
66145;SDS011;52948;60.040;30.320;2022-09-09T04:57:27;3.75;;;1.35;;
66145;SDS011;52948;60.040;30.320;2022-09-09T05:02:30;4.70;;;1.60;;
66145;SDS011;52948;60.040;30.320;2022-09-09T05:07:34;2.13;;;1.25;;
66145;SDS011;52948;60.040;30.320;2022-09-09T05:12:36;3.50;;;1.40;;
66145;SDS011;52948;60.040;30.320;2022-09-09T05:17:38;3.30;;;1.60;;
66145;SDS011;52948;60.040;30.320;2022-09-09T05:22:42;2.83;;;1.38;;
66145;SDS011;52948;60.040;30.320;2022-09-09T05:27:44;5.40;;;1.90;;
66145;SDS011;52948;60.040;30.320;2022-09-09T05:32:47;4.72;;;2.00;;
66145;SDS011;52948;60.040;30.320;2022-09-09T05:37:52;6.45;;;2.22;;
66145;SDS011;52948;60.040;30.320;2022-09-09T05:42:55;5.72;;;1.80;;
66145;SDS011;52948;60.040;30.320;2022-09-09T05:48:01;6.65;;;1.83;;
66145;SDS011;52948;60.040;30.320;2022-09-09T05:53:05;4.68;;;1.60;;
66145;SDS011;52948;60.040;30.320;2022-09-09T05:58:07;6.22;;;1.95;;
66145;SDS011;52948;60.040;30.320;2022-09-09T06:03:11;4.15;;;1.75;;
66145;SDS011;52948;60.040;30.320;2022-09-09T06:08:14;8.48;;;1.52;;
66145;SDS011;52948;60.040;30.320;2022-09-09T06:18:51;5.68;;;1.48;;
66145;SDS011;52948;60.040;30.320;2022-09-09T06:23:54;3.47;;;1.27;;
66145;SDS011;52948;60.040;30.320;2022-09-09T06:28:57;3.08;;;1.13;;
66145;SDS011;52948;60.040;30.320;2022-09-09T06:34:00;2.72;;;1.65;;
66145;SDS011;52948;60.040;30.320;2022-09-09T06:39:05;3.38;;;1.35;;
66145;SDS011;52948;60.040;30.320;2022-09-09T06:44:10;2.17;;;1.05;;
66145;SDS011;52948;60.040;30.320;2022-09-09T06:49:16;3.25;;;1.20;;
66145;SDS011;52948;60.040;30.320;2022-09-09T06:54:44;2.63;;;1.35;;
66145;SDS011;52948;60.040;30.320;2022-09-09T06:59:49;1.40;;;0.80;;
66145;SDS011;52948;60.040;30.320;2022-09-09T07:04:52;3.72;;;1.20;;
66145;SDS011;52948;60.040;30.320;2022-09-09T07:09:54;1.75;;;0.95;;
66145;SDS011;52948;60.040;30.320;2022-09-09T07:20:30;3.08;;;1.38;;
66145;SDS011;52948;60.040;30.320;2022-09-09T07:25:36;2.78;;;1.40;;
66145;SDS011;52948;60.040;30.320;2022-09-09T07:30:38;2.70;;;0.95;;
66145;SDS011;52948;60.040;30.320;2022-09-09T07:35:42;3.17;;;1.00;;
66145;SDS011;52948;60.040;30.320;2022-09-09T07:40:44;1.88;;;1.00;;
66145;SDS011;52948;60.040;30.320;2022-09-09T07:45:57;2.78;;;1.20;;
66145;SDS011;52948;60.040;30.320;2022-09-09T07:51:19;2.05;;;1.08;;
66145;SDS011;52948;60.040;30.320;2022-09-09T07:56:26;1.77;;;0.87;;
66145;SDS011;52948;60.040;30.320;2022-09-09T08:01:31;1.98;;;0.82;;
66145;SDS011;52948;60.040;30.320;2022-09-09T08:06:36;1.27;;;0.75;;
66145;SDS011;52948;60.040;30.320;2022-09-09T08:11:43;1.88;;;1.02;;
66145;SDS011;52948;60.040;30.320;2022-09-09T08:16:47;2.90;;;1.52;;
66145;SDS011;52948;60.040;30.320;2022-09-09T08:21:54;1.10;;;1.00;;
66145;SDS011;52948;60.040;30.320;2022-09-09T08:26:57;2.58;;;1.10;;
66145;SDS011;52948;60.040;30.320;2022-09-09T08:32:00;3.15;;;1.25;;
66145;SDS011;52948;60.040;30.320;2022-09-09T08:37:04;2.53;;;1.50;;
66145;SDS011;52948;60.040;30.320;2022-09-09T08:42:16;3.75;;;1.48;;
66145;SDS011;52948;60.040;30.320;2022-09-09T08:52:57;1.50;;;1.40;;
66145;SDS011;52948;60.040;30.320;2022-09-09T08:58:17;1.88;;;1.20;;
66145;SDS011;52948;60.040;30.320;2022-09-09T09:08:46;2.33;;;1.75;;
66145;SDS011;52948;60.040;30.320;2022-09-09T09:18:59;1.83;;;1.48;;
66145;SDS011;52948;60.040;30.320;2022-09-09T09:24:06;2.58;;;1.40;;
66145;SDS011;52948;60.040;30.320;2022-09-09T09:29:17;2.70;;;1.40;;
66145;SDS011;52948;60.040;30.320;2022-09-09T09:34:22;4.22;;;1.27;;
66145;SDS011;52948;60.040;30.320;2022-09-09T09:39:30;3.33;;;1.50;;
66145;SDS011;52948;60.040;30.320;2022-09-09T09:44:39;4.05;;;1.10;;
66145;SDS011;52948;60.040;30.320;2022-09-09T09:49:54;1.85;;;1.20;;
66145;SDS011;52948;60.040;30.320;2022-09-09T09:54:58;3.30;;;1.15;;
66145;SDS011;52948;60.040;30.320;2022-09-09T10:05:24;3.00;;;1.13;;
66145;SDS011;52948;60.040;30.320;2022-09-09T10:10:34;2.58;;;1.08;;
66145;SDS011;52948;60.040;30.320;2022-09-09T10:16:03;1.00;;;0.80;;
66145;SDS011;52948;60.040;30.320;2022-09-09T10:32:07;2.03;;;0.90;;
66145;SDS011;52948;60.040;30.320;2022-09-09T10:37:35;1.65;;;0.70;;
66145;SDS011;52948;60.040;30.320;2022-09-09T10:42:49;1.95;;;1.00;;
66145;SDS011;52948;60.040;30.320;2022-09-09T10:58:53;1.50;;;0.90;;
66145;SDS011;52948;60.040;30.320;2022-09-09T11:04:21;1.95;;;0.80;;
66145;SDS011;52948;60.040;30.320;2022-09-09T11:19:40;2.30;;;0.80;;
66145;SDS011;52948;60.040;30.320;2022-09-09T11:24:47;2.15;;;0.90;;
66145;SDS011;52948;60.040;30.320;2022-09-09T11:40:26;1.70;;;0.60;;
66145;SDS011;52948;60.040;30.320;2022-09-09T11:45:29;1.80;;;0.68;;
66145;SDS011;52948;60.040;30.320;2022-09-09T11:50:32;0.75;;;0.70;;
66145;SDS011;52948;60.040;30.320;2022-09-09T11:55:36;1.50;;;1.20;;
66145;SDS011;52948;60.040;30.320;2022-09-09T12:00:40;1.45;;;0.80;;
66145;SDS011;52948;60.040;30.320;2022-09-09T12:05:45;1.15;;;0.70;;
66145;SDS011;52948;60.040;30.320;2022-09-09T12:10:56;1.45;;;0.90;;
66145;SDS011;52948;60.040;30.320;2022-09-09T12:15:59;1.52;;;0.70;;
66145;SDS011;52948;60.040;30.320;2022-09-09T12:21:06;0.98;;;0.82;;
66145;SDS011;52948;60.040;30.320;2022-09-09T12:37:08;2.45;;;0.93;;
66145;SDS011;52948;60.040;30.320;2022-09-09T12:42:16;2.58;;;0.80;;
66145;SDS011;52948;60.040;30.320;2022-09-09T12:47:23;1.50;;;0.90;;
66145;SDS011;52948;60.040;30.320;2022-09-09T12:52:35;1.27;;;0.85;;
66145;SDS011;52948;60.040;30.320;2022-09-09T12:57:38;1.27;;;0.98;;
66145;SDS011;52948;60.040;30.320;2022-09-09T13:02:45;1.05;;;0.80;;
66145;SDS011;52948;60.040;30.320;2022-09-09T13:08:01;1.95;;;1.13;;
66145;SDS011;52948;60.040;30.320;2022-09-09T13:13:14;2.55;;;1.10;;
66145;SDS011;52948;60.040;30.320;2022-09-09T13:18:18;3.83;;;1.02;;
66145;SDS011;52948;60.040;30.320;2022-09-09T13:23:30;3.40;;;1.00;;
66145;SDS011;52948;60.040;30.320;2022-09-09T13:28:34;0.82;;;0.80;;
66145;SDS011;52948;60.040;30.320;2022-09-09T13:33:37;1.38;;;1.00;;
66145;SDS011;52948;60.040;30.320;2022-09-09T13:43:53;1.83;;;0.93;;
66145;SDS011;52948;60.040;30.320;2022-09-09T13:48:57;2.20;;;0.90;;
66145;SDS011;52948;60.040;30.320;2022-09-09T13:54:20;2.15;;;1.40;;
66145;SDS011;52948;60.040;30.320;2022-09-09T13:59:22;2.25;;;1.17;;
66145;SDS011;52948;60.040;30.320;2022-09-09T14:04:25;3.05;;;1.30;;
66145;SDS011;52948;60.040;30.320;2022-09-09T14:09:28;2.40;;;1.17;;
66145;SDS011;52948;60.040;30.320;2022-09-09T14:14:37;2.92;;;1.80;;
66145;SDS011;52948;60.040;30.320;2022-09-09T14:19:40;1.97;;;1.40;;
66145;SDS011;52948;60.040;30.320;2022-09-09T14:24:47;3.00;;;1.30;;
66145;SDS011;52948;60.040;30.320;2022-09-09T14:29:51;2.40;;;1.30;;
66145;SDS011;52948;60.040;30.320;2022-09-09T14:34:54;1.60;;;1.40;;
66145;SDS011;52948;60.040;30.320;2022-09-09T14:39:57;4.25;;;1.83;;
66145;SDS011;52948;60.040;30.320;2022-09-09T14:44:59;2.85;;;1.80;;
66145;SDS011;52948;60.040;30.320;2022-09-09T14:50:01;3.10;;;1.63;;
66145;SDS011;52948;60.040;30.320;2022-09-09T14:55:10;4.18;;;2.35;;
66145;SDS011;52948;60.040;30.320;2022-09-09T15:00:13;4.25;;;2.20;;
66145;SDS011;52948;60.040;30.320;2022-09-09T15:05:19;5.53;;;1.42;;
66145;SDS011;52948;60.040;30.320;2022-09-09T15:10:21;3.97;;;1.73;;
66145;SDS011;52948;60.040;30.320;2022-09-09T15:15:27;5.80;;;2.55;;
66145;SDS011;52948;60.040;30.320;2022-09-09T15:20:33;4.13;;;2.08;;
66145;SDS011;52948;60.040;30.320;2022-09-09T15:25:35;4.00;;;1.90;;
66145;SDS011;52948;60.040;30.320;2022-09-09T15:30:37;3.88;;;1.70;;
66145;SDS011;52948;60.040;30.320;2022-09-09T15:35:39;1.40;;;1.10;;
66145;SDS011;52948;60.040;30.320;2022-09-09T15:40:42;1.85;;;1.48;;
66145;SDS011;52948;60.040;30.320;2022-09-09T15:45:51;5.15;;;1.60;;
66145;SDS011;52948;60.040;30.320;2022-09-09T15:56:08;3.42;;;1.45;;
66145;SDS011;52948;60.040;30.320;2022-09-09T16:01:10;4.40;;;1.58;;
66145;SDS011;52948;60.040;30.320;2022-09-09T16:06:14;3.10;;;1.50;;
66145;SDS011;52948;60.040;30.320;2022-09-09T16:11:18;3.88;;;1.80;;
66145;SDS011;52948;60.040;30.320;2022-09-09T16:21:32;6.88;;;2.00;;
66145;SDS011;52948;60.040;30.320;2022-09-09T16:26:38;3.78;;;2.00;;
66145;SDS011;52948;60.040;30.320;2022-09-09T16:31:41;3.42;;;1.63;;
66145;SDS011;52948;60.040;30.320;2022-09-09T16:36:44;2.03;;;1.20;;
66145;SDS011;52948;60.040;30.320;2022-09-09T16:41:46;2.03;;;1.52;;
66145;SDS011;52948;60.040;30.320;2022-09-09T16:46:49;3.65;;;2.35;;
66145;SDS011;52948;60.040;30.320;2022-09-09T16:51:53;4.45;;;2.10;;
66145;SDS011;52948;60.040;30.320;2022-09-09T16:56:58;2.92;;;1.95;;
66145;SDS011;52948;60.040;30.320;2022-09-09T17:02:01;2.95;;;2.10;;
66145;SDS011;52948;60.040;30.320;2022-09-09T17:07:05;3.83;;;2.05;;
66145;SDS011;52948;60.040;30.320;2022-09-09T17:12:07;2.40;;;1.67;;
66145;SDS011;52948;60.040;30.320;2022-09-09T17:17:10;2.85;;;1.80;;
66145;SDS011;52948;60.040;30.320;2022-09-09T17:22:13;5.43;;;2.10;;
66145;SDS011;52948;60.040;30.320;2022-09-09T17:27:15;6.97;;;2.40;;
66145;SDS011;52948;60.040;30.320;2022-09-09T17:32:17;5.25;;;2.20;;
66145;SDS011;52948;60.040;30.320;2022-09-09T17:37:20;4.32;;;1.85;;
66145;SDS011;52948;60.040;30.320;2022-09-09T17:42:22;6.85;;;2.50;;
66145;SDS011;52948;60.040;30.320;2022-09-09T17:47:24;4.05;;;1.98;;
66145;SDS011;52948;60.040;30.320;2022-09-09T17:52:26;3.85;;;2.92;;
66145;SDS011;52948;60.040;30.320;2022-09-09T17:57:28;5.95;;;3.35;;
66145;SDS011;52948;60.040;30.320;2022-09-09T18:02:31;5.45;;;3.22;;
66145;SDS011;52948;60.040;30.320;2022-09-09T18:07:33;6.13;;;2.70;;
66145;SDS011;52948;60.040;30.320;2022-09-09T18:12:35;8.30;;;3.95;;
66145;SDS011;52948;60.040;30.320;2022-09-09T18:17:37;5.10;;;3.47;;
66145;SDS011;52948;60.040;30.320;2022-09-09T18:22:39;8.23;;;4.40;;
66145;SDS011;52948;60.040;30.320;2022-09-09T18:27:41;9.20;;;5.07;;
66145;SDS011;52948;60.040;30.320;2022-09-09T18:32:44;8.13;;;4.32;;
66145;SDS011;52948;60.040;30.320;2022-09-09T18:37:47;12.68;;;6.30;;
66145;SDS011;52948;60.040;30.320;2022-09-09T18:42:49;9.77;;;4.72;;
66145;SDS011;52948;60.040;30.320;2022-09-09T18:47:51;8.75;;;5.30;;
66145;SDS011;52948;60.040;30.320;2022-09-09T18:52:53;10.73;;;5.70;;
66145;SDS011;52948;60.040;30.320;2022-09-09T18:57:56;9.55;;;5.18;;
66145;SDS011;52948;60.040;30.320;2022-09-09T19:02:59;9.88;;;5.22;;
66145;SDS011;52948;60.040;30.320;2022-09-09T19:08:01;11.20;;;6.13;;
66145;SDS011;52948;60.040;30.320;2022-09-09T19:13:04;13.75;;;6.57;;
66145;SDS011;52948;60.040;30.320;2022-09-09T19:18:06;14.77;;;7.13;;
66145;SDS011;52948;60.040;30.320;2022-09-09T19:23:08;13.43;;;6.57;;
66145;SDS011;52948;60.040;30.320;2022-09-09T19:28:11;17.80;;;7.43;;
66145;SDS011;52948;60.040;30.320;2022-09-09T19:33:13;20.40;;;10.68;;
66145;SDS011;52948;60.040;30.320;2022-09-09T19:38:16;15.25;;;7.68;;
66145;SDS011;52948;60.040;30.320;2022-09-09T19:43:18;13.48;;;6.32;;
66145;SDS011;52948;60.040;30.320;2022-09-09T19:48:22;19.15;;;8.98;;
66145;SDS011;52948;60.040;30.320;2022-09-09T19:53:26;15.85;;;7.47;;
66145;SDS011;52948;60.040;30.320;2022-09-09T19:58:29;13.77;;;7.13;;
66145;SDS011;52948;60.040;30.320;2022-09-09T20:03:34;15.10;;;7.10;;
66145;SDS011;52948;60.040;30.320;2022-09-09T20:08:37;17.50;;;7.57;;
66145;SDS011;52948;60.040;30.320;2022-09-09T20:13:39;17.98;;;8.02;;
66145;SDS011;52948;60.040;30.320;2022-09-09T20:18:43;11.57;;;6.50;;
66145;SDS011;52948;60.040;30.320;2022-09-09T20:23:47;12.27;;;7.45;;
66145;SDS011;52948;60.040;30.320;2022-09-09T20:28:50;20.23;;;9.60;;
66145;SDS011;52948;60.040;30.320;2022-09-09T20:33:55;21.08;;;8.43;;
66145;SDS011;52948;60.040;30.320;2022-09-09T20:44:14;16.92;;;7.97;;
66145;SDS011;52948;60.040;30.320;2022-09-09T20:49:19;14.20;;;7.37;;
66145;SDS011;52948;60.040;30.320;2022-09-09T20:54:23;16.40;;;5.93;;
66145;SDS011;52948;60.040;30.320;2022-09-09T20:59:30;13.93;;;7.47;;
66145;SDS011;52948;60.040;30.320;2022-09-09T21:04:33;23.77;;;8.68;;
66145;SDS011;52948;60.040;30.320;2022-09-09T21:09:36;26.98;;;9.95;;
66145;SDS011;52948;60.040;30.320;2022-09-09T21:14:39;20.45;;;9.10;;
66145;SDS011;52948;60.040;30.320;2022-09-09T21:19:41;17.55;;;7.70;;
66145;SDS011;52948;60.040;30.320;2022-09-09T21:24:45;17.30;;;6.93;;
66145;SDS011;52948;60.040;30.320;2022-09-09T21:29:47;17.95;;;8.63;;
66145;SDS011;52948;60.040;30.320;2022-09-09T21:34:50;13.77;;;6.85;;
66145;SDS011;52948;60.040;30.320;2022-09-09T21:39:53;16.73;;;7.75;;
66145;SDS011;52948;60.040;30.320;2022-09-09T21:44:55;21.75;;;7.72;;
66145;SDS011;52948;60.040;30.320;2022-09-09T21:49:58;20.45;;;7.97;;
66145;SDS011;52948;60.040;30.320;2022-09-09T21:55:08;15.38;;;7.32;;
66145;SDS011;52948;60.040;30.320;2022-09-09T22:00:48;16.67;;;8.47;;
66145;SDS011;52948;60.040;30.320;2022-09-09T22:05:50;19.20;;;10.85;;
66145;SDS011;52948;60.040;30.320;2022-09-09T22:10:53;18.23;;;7.60;;
66145;SDS011;52948;60.040;30.320;2022-09-09T22:15:55;14.60;;;7.00;;
66145;SDS011;52948;60.040;30.320;2022-09-09T22:20:58;14.77;;;7.65;;
66145;SDS011;52948;60.040;30.320;2022-09-09T22:26:09;13.15;;;6.78;;
66145;SDS011;52948;60.040;30.320;2022-09-09T22:31:11;12.02;;;5.82;;
66145;SDS011;52948;60.040;30.320;2022-09-09T22:36:13;13.80;;;5.03;;
66145;SDS011;52948;60.040;30.320;2022-09-09T22:41:16;13.02;;;4.95;;
66145;SDS011;52948;60.040;30.320;2022-09-09T22:46:19;15.80;;;5.90;;
66145;SDS011;52948;60.040;30.320;2022-09-09T22:51:21;8.45;;;4.75;;
66145;SDS011;52948;60.040;30.320;2022-09-09T22:56:23;13.88;;;5.00;;
66145;SDS011;52948;60.040;30.320;2022-09-09T23:01:26;9.77;;;5.88;;
66145;SDS011;52948;60.040;30.320;2022-09-09T23:06:28;8.27;;;4.13;;
66145;SDS011;52948;60.040;30.320;2022-09-09T23:11:32;9.10;;;3.90;;
66145;SDS011;52948;60.040;30.320;2022-09-09T23:16:37;11.70;;;4.90;;
66145;SDS011;52948;60.040;30.320;2022-09-09T23:21:43;9.77;;;5.35;;
66145;SDS011;52948;60.040;30.320;2022-09-09T23:26:46;8.98;;;4.72;;
66145;SDS011;52948;60.040;30.320;2022-09-09T23:31:48;8.25;;;4.93;;
66145;SDS011;52948;60.040;30.320;2022-09-09T23:36:51;8.77;;;4.80;;
66145;SDS011;52948;60.040;30.320;2022-09-09T23:41:54;10.07;;;5.50;;
66145;SDS011;52948;60.040;30.320;2022-09-09T23:46:56;17.20;;;6.70;;
66145;SDS011;52948;60.040;30.320;2022-09-09T23:51:59;16.60;;;7.28;;
66145;SDS011;52948;60.040;30.320;2022-09-09T23:57:03;14.82;;;7.35;;
